WIF557 ENTO-ENZV
Flight info
| Callsign | WIF557 |
|---|---|
| Flight time | 0h 39m |
| Altitude | 22000 |
| Route | TITUX DCT IDIPI |
| Aircraft | DH8D/M-SDE2E3FGRY/H |
Departure
| Time | 2026-05-09 09:18 |
|---|---|
| Airport | Sandefjord Airport, Torp (ENTO) |
Arrival
| Time | 2026-05-09 09:57 |
|---|---|
| Airport | Stavanger Airport, Sola (ENZV) |
| Time | Latitude | Longitude | Altitude | Speed | Heading |
|---|---|---|---|---|---|
| 2026-05-09 08:55 | 59.18008 | 10.25327 | 275 ft | 0 kts | 180° |
| 2026-05-09 09:09 | 59.18007 | 10.25327 | 275 ft | 0 kts | 180° |
| 2026-05-09 09:10 | 59.18015 | 10.25327 | 275 ft | 2 kts | 179° |
| 2026-05-09 09:10 | 59.18030 | 10.25327 | 275 ft | 1 kts | 179° |
| 2026-05-09 09:11 | 59.18040 | 10.25326 | 276 ft | 2 kts | 168° |
| 2026-05-09 09:11 | 59.18053 | 10.25315 | 276 ft | 2 kts | 141° |
| 2026-05-09 09:11 | 59.18063 | 10.25293 | 276 ft | 2 kts | 115° |
| 2026-05-09 09:11 | 59.18066 | 10.25266 | 276 ft | 1 kts | 90° |
| 2026-05-09 09:12 | 59.18066 | 10.25260 | 277 ft | 0 kts | 89° |
| 2026-05-09 09:13 | 59.18066 | 10.25267 | 276 ft | 3 kts | 89° |
| 2026-05-09 09:14 | 59.18064 | 10.25347 | 275 ft | 8 kts | 89° |
| 2026-05-09 09:14 | 59.18069 | 10.25485 | 274 ft | 12 kts | 75° |
| 2026-05-09 09:14 | 59.18127 | 10.25586 | 274 ft | 11 kts | 47° |
| 2026-05-09 09:14 | 59.18185 | 10.25711 | 274 ft | 13 kts | 48° |
| 2026-05-09 09:15 | 59.18257 | 10.25865 | 274 ft | 15 kts | 47° |
| 2026-05-09 09:15 | 59.18275 | 10.26060 | 273 ft | 15 kts | 91° |
| 2026-05-09 09:15 | 59.18305 | 10.26245 | 272 ft | 16 kts | 7° |
| 2026-05-09 09:15 | 59.18419 | 10.26243 | 274 ft | 15 kts | 359° |
| 2026-05-09 09:16 | 59.18525 | 10.26242 | 277 ft | 15 kts | 359° |
| 2026-05-09 09:16 | 59.18820 | 10.26235 | 285 ft | 20 kts | 0° |
| 2026-05-09 09:16 | 59.18953 | 10.26231 | 288 ft | 17 kts | 358° |
| 2026-05-09 09:17 | 59.19056 | 10.26185 | 290 ft | 14 kts | 291° |
| 2026-05-09 09:17 | 59.19058 | 10.26021 | 291 ft | 10 kts | 269° |
| 2026-05-09 09:17 | 59.18984 | 10.25854 | 290 ft | 30 kts | 178° |
| 2026-05-09 09:17 | 59.18490 | 10.25865 | 280 ft | 110 kts | 179° |
| 2026-05-09 09:18 | 59.17579 | 10.25858 | 454 ft | 141 kts | 188° |
| 2026-05-09 09:18 | 59.16561 | 10.25694 | 963 ft | 153 kts | 190° |
| 2026-05-09 09:18 | 59.15574 | 10.25005 | 1608 ft | 156 kts | 223° |
| 2026-05-09 09:18 | 59.14943 | 10.23291 | 2255 ft | 160 kts | 236° |
| 2026-05-09 09:19 | 59.14332 | 10.21431 | 2791 ft | 167 kts | 237° |
| 2026-05-09 09:19 | 59.13958 | 10.19197 | 3156 ft | 183 kts | 256° |
| 2026-05-09 09:19 | 59.13704 | 10.16786 | 3699 ft | 186 kts | 254° |
| 2026-05-09 09:19 | 59.13441 | 10.14342 | 4278 ft | 187 kts | 255° |
| 2026-05-09 09:20 | 59.13113 | 10.11913 | 4835 ft | 189 kts | 249° |
| 2026-05-09 09:20 | 59.12722 | 10.09476 | 5417 ft | 190 kts | 250° |
| 2026-05-09 09:20 | 59.12342 | 10.07019 | 5980 ft | 192 kts | 250° |
| 2026-05-09 09:20 | 59.11958 | 10.04548 | 6566 ft | 193 kts | 250° |
| 2026-05-09 09:21 | 59.11565 | 10.02035 | 7154 ft | 195 kts | 250° |
| 2026-05-09 09:21 | 59.11173 | 9.99539 | 7767 ft | 195 kts | 250° |
| 2026-05-09 09:21 | 59.10782 | 9.97048 | 8353 ft | 196 kts | 250° |
| 2026-05-09 09:21 | 59.10382 | 9.94517 | 8961 ft | 196 kts | 250° |
| 2026-05-09 09:22 | 59.09985 | 9.92007 | 9527 ft | 197 kts | 250° |
| 2026-05-09 09:22 | 59.09586 | 9.89484 | 10146 ft | 198 kts | 250° |
| 2026-05-09 09:22 | 59.09177 | 9.86914 | 10731 ft | 199 kts | 250° |
| 2026-05-09 09:22 | 59.08771 | 9.84362 | 11252 ft | 202 kts | 250° |
| 2026-05-09 09:23 | 59.08357 | 9.81759 | 11844 ft | 202 kts | 250° |
| 2026-05-09 09:23 | 59.07939 | 9.79146 | 12401 ft | 204 kts | 250° |
| 2026-05-09 09:23 | 59.07519 | 9.76517 | 12910 ft | 205 kts | 250° |
| 2026-05-09 09:23 | 59.07096 | 9.73881 | 13439 ft | 207 kts | 250° |
| 2026-05-09 09:24 | 59.06671 | 9.71233 | 13943 ft | 208 kts | 250° |
| 2026-05-09 09:24 | 59.06241 | 9.68557 | 14417 ft | 209 kts | 250° |
| 2026-05-09 09:24 | 59.05808 | 9.65869 | 14905 ft | 211 kts | 250° |
| 2026-05-09 09:24 | 59.05365 | 9.63124 | 15360 ft | 212 kts | 250° |
| 2026-05-09 09:25 | 59.04927 | 9.60409 | 15797 ft | 214 kts | 250° |
| 2026-05-09 09:25 | 59.04482 | 9.57661 | 16260 ft | 214 kts | 250° |
| 2026-05-09 09:25 | 59.04056 | 9.54893 | 16676 ft | 217 kts | 255° |
| 2026-05-09 09:25 | 59.03941 | 9.51981 | 17072 ft | 221 kts | 266° |
| 2026-05-09 09:26 | 59.03967 | 9.48994 | 17481 ft | 223 kts | 267° |
| 2026-05-09 09:26 | 59.03995 | 9.45981 | 17876 ft | 224 kts | 267° |
| 2026-05-09 09:26 | 59.04019 | 9.42956 | 18262 ft | 225 kts | 266° |
| 2026-05-09 09:26 | 59.04041 | 9.39935 | 18618 ft | 225 kts | 266° |
| 2026-05-09 09:27 | 59.04061 | 9.36892 | 18961 ft | 226 kts | 266° |
| 2026-05-09 09:27 | 59.04079 | 9.33814 | 19310 ft | 227 kts | 266° |
| 2026-05-09 09:27 | 59.04094 | 9.30760 | 19636 ft | 228 kts | 266° |
| 2026-05-09 09:27 | 59.04108 | 9.27704 | 19973 ft | 228 kts | 266° |
| 2026-05-09 09:28 | 59.04122 | 9.24640 | 20242 ft | 229 kts | 266° |
| 2026-05-09 09:28 | 59.04134 | 9.21572 | 20587 ft | 229 kts | 266° |
| 2026-05-09 09:28 | 59.04145 | 9.18450 | 20850 ft | 230 kts | 265° |
| 2026-05-09 09:28 | 59.04155 | 9.15357 | 21145 ft | 230 kts | 265° |
| 2026-05-09 09:29 | 59.04165 | 9.12261 | 21389 ft | 231 kts | 265° |
| 2026-05-09 09:29 | 59.04173 | 9.09119 | 21659 ft | 232 kts | 265° |
| 2026-05-09 09:29 | 59.04181 | 9.06014 | 21894 ft | 233 kts | 265° |
| 2026-05-09 09:29 | 59.04188 | 9.02831 | 22109 ft | 236 kts | 265° |
| 2026-05-09 09:30 | 59.04192 | 8.99597 | 22172 ft | 244 kts | 265° |
| 2026-05-09 09:30 | 59.04128 | 8.96288 | 22195 ft | 252 kts | 262° |
| 2026-05-09 09:30 | 59.04006 | 8.92841 | 22200 ft | 261 kts | 262° |
| 2026-05-09 09:30 | 59.03881 | 8.89240 | 22200 ft | 270 kts | 263° |
| 2026-05-09 09:31 | 59.03756 | 8.85552 | 22200 ft | 277 kts | 263° |
| 2026-05-09 09:31 | 59.03627 | 8.81782 | 22194 ft | 284 kts | 263° |
| 2026-05-09 09:31 | 59.03499 | 8.77957 | 22182 ft | 284 kts | 263° |
| 2026-05-09 09:32 | 59.03244 | 8.70367 | 22169 ft | 282 kts | 263° |
| 2026-05-09 09:32 | 59.03115 | 8.66561 | 22173 ft | 281 kts | 263° |
| 2026-05-09 09:32 | 59.02988 | 8.62794 | 22180 ft | 280 kts | 263° |
| 2026-05-09 09:32 | 59.02861 | 8.59052 | 22182 ft | 279 kts | 263° |
| 2026-05-09 09:33 | 59.02731 | 8.55256 | 22176 ft | 279 kts | 263° |
| 2026-05-09 09:33 | 59.02601 | 8.51513 | 22178 ft | 278 kts | 263° |
| 2026-05-09 09:33 | 59.02472 | 8.47792 | 22187 ft | 277 kts | 263° |
| 2026-05-09 09:33 | 59.02341 | 8.44063 | 22186 ft | 277 kts | 263° |
| 2026-05-09 09:34 | 59.02210 | 8.40345 | 22187 ft | 277 kts | 263° |
| 2026-05-09 09:34 | 59.02079 | 8.36653 | 22187 ft | 276 kts | 263° |
| 2026-05-09 09:34 | 59.01946 | 8.32920 | 22187 ft | 276 kts | 262° |
| 2026-05-09 09:36 | 59.00986 | 8.06966 | 22176 ft | 276 kts | 262° |
| 2026-05-09 09:36 | 59.00844 | 8.03247 | 22169 ft | 276 kts | 262° |
| 2026-05-09 09:36 | 59.00702 | 7.99530 | 22168 ft | 276 kts | 262° |
| 2026-05-09 09:37 | 59.00559 | 7.95842 | 22163 ft | 276 kts | 262° |
| 2026-05-09 09:37 | 59.00415 | 7.92152 | 22162 ft | 276 kts | 262° |
| 2026-05-09 09:37 | 59.00271 | 7.88467 | 22165 ft | 275 kts | 262° |
| 2026-05-09 09:37 | 59.00124 | 7.84724 | 22163 ft | 275 kts | 262° |
| 2026-05-09 09:38 | 58.99977 | 7.81049 | 22162 ft | 275 kts | 262° |
| 2026-05-09 09:38 | 58.99829 | 7.77380 | 22161 ft | 275 kts | 262° |
| 2026-05-09 09:38 | 58.99678 | 7.73664 | 22159 ft | 275 kts | 262° |
| 2026-05-09 09:38 | 58.99529 | 7.69995 | 22166 ft | 274 kts | 262° |
| 2026-05-09 09:39 | 58.99378 | 7.66314 | 22162 ft | 274 kts | 262° |
| 2026-05-09 09:39 | 58.99226 | 7.62641 | 22161 ft | 274 kts | 262° |
| 2026-05-09 09:39 | 58.99073 | 7.58962 | 22164 ft | 274 kts | 262° |
| 2026-05-09 09:39 | 58.98917 | 7.55241 | 22166 ft | 280 kts | 262° |
| 2026-05-09 09:40 | 58.98757 | 7.51444 | 22168 ft | 286 kts | 262° |
| 2026-05-09 09:40 | 58.98594 | 7.47575 | 22163 ft | 291 kts | 262° |
| 2026-05-09 09:40 | 58.98425 | 7.43649 | 22158 ft | 295 kts | 261° |
| 2026-05-09 09:40 | 58.98255 | 7.39695 | 22160 ft | 298 kts | 262° |
| 2026-05-09 09:41 | 58.98081 | 7.35667 | 22159 ft | 300 kts | 262° |
| 2026-05-09 09:41 | 58.97906 | 7.31633 | 22074 ft | 301 kts | 261° |
| 2026-05-09 09:41 | 58.97726 | 7.27574 | 21646 ft | 301 kts | 261° |
| 2026-05-09 09:41 | 58.97543 | 7.23532 | 21112 ft | 305 kts | 262° |
| 2026-05-09 09:42 | 58.97361 | 7.19443 | 20640 ft | 306 kts | 261° |
| 2026-05-09 09:42 | 58.97177 | 7.15384 | 20134 ft | 308 kts | 261° |
| 2026-05-09 09:42 | 58.96989 | 7.11251 | 19605 ft | 310 kts | 261° |
| 2026-05-09 09:42 | 58.96798 | 7.07088 | 19033 ft | 307 kts | 261° |
| 2026-05-09 09:43 | 58.96610 | 7.03029 | 18493 ft | 302 kts | 262° |
| 2026-05-09 09:43 | 58.96423 | 6.99029 | 17962 ft | 298 kts | 262° |
| 2026-05-09 09:43 | 58.96238 | 6.95061 | 17445 ft | 293 kts | 262° |
| 2026-05-09 09:43 | 58.96060 | 6.91214 | 16934 ft | 290 kts | 262° |
| 2026-05-09 09:44 | 58.95840 | 6.87370 | 16423 ft | 286 kts | 259° |
| 2026-05-09 09:44 | 58.95532 | 6.83610 | 15932 ft | 283 kts | 259° |
| 2026-05-09 09:44 | 58.95218 | 6.79898 | 15464 ft | 279 kts | 258° |
| 2026-05-09 09:44 | 58.94906 | 6.76202 | 15000 ft | 276 kts | 259° |
| 2026-05-09 09:45 | 58.94600 | 6.72552 | 14542 ft | 273 kts | 259° |
| 2026-05-09 09:45 | 58.94303 | 6.68990 | 14094 ft | 270 kts | 259° |
| 2026-05-09 09:45 | 58.94005 | 6.65414 | 13647 ft | 268 kts | 259° |
| 2026-05-09 09:45 | 58.93712 | 6.61900 | 13205 ft | 265 kts | 259° |
| 2026-05-09 09:46 | 58.93420 | 6.58393 | 12765 ft | 263 kts | 259° |
| 2026-05-09 09:46 | 58.93133 | 6.54948 | 12332 ft | 261 kts | 259° |
| 2026-05-09 09:46 | 58.92846 | 6.51498 | 11899 ft | 258 kts | 259° |
| 2026-05-09 09:46 | 58.92561 | 6.48097 | 11471 ft | 256 kts | 259° |
| 2026-05-09 09:47 | 58.92277 | 6.44701 | 11056 ft | 254 kts | 259° |
| 2026-05-09 09:47 | 58.91997 | 6.41357 | 10638 ft | 251 kts | 259° |
| 2026-05-09 09:47 | 58.91719 | 6.38070 | 10237 ft | 248 kts | 259° |
| 2026-05-09 09:47 | 58.91444 | 6.34815 | 9844 ft | 246 kts | 259° |
| 2026-05-09 09:48 | 58.91171 | 6.31567 | 9449 ft | 244 kts | 258° |
| 2026-05-09 09:48 | 58.90895 | 6.28333 | 9039 ft | 243 kts | 258° |
| 2026-05-09 09:48 | 58.90693 | 6.25080 | 8600 ft | 245 kts | 269° |
| 2026-05-09 09:48 | 58.91128 | 6.21922 | 8247 ft | 245 kts | 288° |
| 2026-05-09 09:49 | 58.91783 | 6.18876 | 7826 ft | 246 kts | 289° |
| 2026-05-09 09:49 | 58.92443 | 6.15841 | 7420 ft | 246 kts | 289° |
| 2026-05-09 09:49 | 58.93105 | 6.12800 | 7014 ft | 245 kts | 289° |
| 2026-05-09 09:49 | 58.93755 | 6.09782 | 6605 ft | 243 kts | 288° |
| 2026-05-09 09:50 | 58.94402 | 6.06788 | 6205 ft | 241 kts | 288° |
| 2026-05-09 09:50 | 58.95038 | 6.03820 | 5808 ft | 239 kts | 288° |
| 2026-05-09 09:50 | 58.95670 | 6.00862 | 5408 ft | 236 kts | 288° |
| 2026-05-09 09:50 | 58.96284 | 5.97962 | 5026 ft | 231 kts | 288° |
| 2026-05-09 09:51 | 58.96881 | 5.95139 | 4646 ft | 224 kts | 288° |
| 2026-05-09 09:51 | 58.97465 | 5.92373 | 4272 ft | 217 kts | 289° |
| 2026-05-09 09:51 | 58.98026 | 5.89713 | 3917 ft | 210 kts | 288° |
| 2026-05-09 09:51 | 58.98566 | 5.87150 | 3577 ft | 201 kts | 289° |
| 2026-05-09 09:52 | 58.99075 | 5.84729 | 3256 ft | 193 kts | 289° |
| 2026-05-09 09:52 | 58.99590 | 5.82332 | 2968 ft | 188 kts | 292° |
| 2026-05-09 09:52 | 59.00180 | 5.80160 | 2754 ft | 179 kts | 296° |
| 2026-05-09 09:52 | 59.00787 | 5.78078 | 2578 ft | 178 kts | 296° |
| 2026-05-09 09:53 | 59.01249 | 5.75884 | 2381 ft | 175 kts | 281° |
| 2026-05-09 09:53 | 59.01392 | 5.73566 | 2196 ft | 172 kts | 266° |
| 2026-05-09 09:53 | 59.01236 | 5.71282 | 2011 ft | 170 kts | 253° |
| 2026-05-09 09:53 | 59.00805 | 5.69182 | 1883 ft | 164 kts | 239° |
| 2026-05-09 09:54 | 59.00160 | 5.67415 | 1785 ft | 159 kts | 227° |
| 2026-05-09 09:54 | 58.99344 | 5.66011 | 1693 ft | 153 kts | 215° |
| 2026-05-09 09:54 | 58.98446 | 5.65029 | 1603 ft | 147 kts | 206° |
| 2026-05-09 09:54 | 58.97507 | 5.64307 | 1527 ft | 143 kts | 200° |
| 2026-05-09 09:55 | 58.96552 | 5.63814 | 1448 ft | 142 kts | 193° |
| 2026-05-09 09:55 | 58.95571 | 5.63562 | 1236 ft | 141 kts | 186° |
| 2026-05-09 09:55 | 58.94588 | 5.63566 | 1008 ft | 139 kts | 180° |
| 2026-05-09 09:55 | 58.93641 | 5.63669 | 879 ft | 136 kts | 180° |
| 2026-05-09 09:56 | 58.92689 | 5.63738 | 695 ft | 137 kts | 181° |
| 2026-05-09 09:56 | 58.91754 | 5.63689 | 531 ft | 135 kts | 184° |
| 2026-05-09 09:56 | 58.90821 | 5.63690 | 390 ft | 133 kts | 181° |
| 2026-05-09 09:56 | 58.89916 | 5.63718 | 194 ft | 126 kts | 182° |
| 2026-05-09 09:57 | 58.89059 | 5.63741 | 34 ft | 120 kts | 180° |
| 2026-05-09 09:57 | 58.88357 | 5.63759 | 31 ft | 76 kts | 180° |
| 2026-05-09 09:57 | 58.87936 | 5.63773 | 33 ft | 48 kts | 180° |
| 2026-05-09 09:57 | 58.87717 | 5.63779 | 34 ft | 19 kts | 186° |
| 2026-05-09 09:58 | 58.87705 | 5.63610 | 33 ft | 13 kts | 285° |
| 2026-05-09 09:58 | 58.87736 | 5.63398 | 31 ft | 18 kts | 285° |
| 2026-05-09 09:58 | 58.87823 | 5.63291 | 31 ft | 16 kts | 1° |
| 2026-05-09 09:58 | 58.87945 | 5.63371 | 31 ft | 20 kts | 23° |
| 2026-05-09 09:59 | 58.88080 | 5.63437 | 31 ft | 21 kts | 358° |
| 2026-05-09 09:59 | 58.88222 | 5.63433 | 31 ft | 19 kts | 359° |
| 2026-05-09 09:59 | 58.88287 | 5.63286 | 30 ft | 14 kts | 308° |
| 2026-05-09 09:59 | 58.88381 | 5.63215 | 30 ft | 15 kts | 329° |
| 2026-05-09 10:00 | 58.88444 | 5.63078 | 29 ft | 11 kts | 271° |
| 2026-05-09 10:00 | 58.88403 | 5.62978 | 28 ft | 7 kts | 225° |
| 2026-05-09 10:00 | 58.88384 | 5.62940 | 28 ft | 0 kts | 225° |